CheckWX is a tool to help pilots better visualize weather data.  It is not intended as a substitute for an official pre-flight weather briefing.

01:28:50 UTC

LTFE METAR
Milas Bodrum International Airport
Bodrum, Turkey
Current

39 mins ago

LTFE 300050Z 09003KT CAVOK 12/10 Q1017 NOSIG RMK RWY10 04004KT
Observed
May-30 @ 00:50 UTC
Wind
  • 090° at 3 KTS
Visibility
10,000+ meters
Flight Rules
VFR
Cloud Levels
  • Clear skies
Temperature
12°C / 54°F
Dewpoint
10°C / 50°F
Humidity
88%
Altimeter
30.03" Hg
Pressure
1016.92 hPa
Previous

1 hour ago

LTFE 300020Z 15003KT CAVOK 12/10 Q1017 NOSIG RMK RWY10 12004KT
Observed
May-30 @ 00:20 UTC
Wind
  • 150° at 3 KTS
Visibility
10,000+ meters
Flight Rules
VFR
Cloud Levels
  • Clear skies
Temperature
12°C / 54°F
Dewpoint
10°C / 50°F
Humidity
88%
Altimeter
30.03" Hg
Pressure
1016.92 hPa
Previous

2 hours ago

LTFE 292350Z VRB01KT CAVOK 12/10 Q1017 NOSIG RMK RWY10 06003KT
Observed
May-29 @ 23:50 UTC
Wind
  • Variable at 1 KTS
Visibility
10,000+ meters
Flight Rules
VFR
Cloud Levels
  • Clear skies
Temperature
12°C / 54°F
Dewpoint
10°C / 50°F
Humidity
88%
Altimeter
30.03" Hg
Pressure
1016.92 hPa